Time,TemperatureF,DewpointF,PressureIn,WindDirection,WindDirectionDegrees,WindSpeedMPH,WindSpeedGustMPH,Humidity,HourlyPrecipIn,Conditions,Clouds,dailyrainin,SoftwareType,DateUTC
2013-01-09 00:08:00,41.7,41.2,29.92,ESE,112,0.0,-999.0,98,-99.99,,,0.00,Acu-Link.com,2013-01-09 05:08:00,
2013-01-09 00:24:00,41.2,40.7,29.92,ESE,112,0.0,-999.0,98,-99.99,,,0.00,Acu-Link.com,2013-01-09 05:24:00,
2013-01-09 00:39:00,41.2,40.7,29.92,ESE,112,0.0,-999.0,98,-99.99,,,0.00,Acu-Link.com,2013-01-09 05:39:00,
2013-01-09 00:54:00,41.5,41.0,29.92,East,90,0.0,-999.0,98,-99.99,,,0.00,Acu-Link.com,2013-01-09 05:54:00,
2013-01-09 01:09:00,41.5,41.0,29.92,WNW,292,0.0,-999.0,98,-99.99,,,0.00,Acu-Link.com,2013-01-09 06:09:00,
2013-01-09 01:25:00,41.2,40.7,29.92,WNW,292,0.0,-999.0,98,-99.99,,,0.00,Acu-Link.com,2013-01-09 06:25:00,
2013-01-09 01:40:00,40.5,40.0,29.92,SSE,157,0.0,-999.0,98,-99.99,,,0.00,Acu-Link.com,2013-01-09 06:40:00,
2013-01-09 01:55:00,40.1,39.6,29.92,ESE,112,0.0,-999.0,98,-99.99,,,0.00,Acu-Link.com,2013-01-09 06:55:00,
2013-01-09 02:11:00,39.6,39.1,29.92,SE,135,0.0,-999.0,98,-99.99,,,0.00,Acu-Link.com,2013-01-09 07:11:00,
2013-01-09 02:26:00,39.2,38.7,29.92,SSE,157,0.0,-999.0,98,-99.99,,,0.00,Acu-Link.com,2013-01-09 07:26:00,
2013-01-09 02:41:00,38.8,38.3,29.92,NW,315,0.0,-999.0,98,-99.99,,,0.00,Acu-Link.com,2013-01-09 07:41:00,
2013-01-09 02:57:00,38.5,38.0,29.92,ESE,112,0.0,-999.0,98,-99.99,,,0.00,Acu-Link.com,2013-01-09 07:57:00,
2013-01-09 03:12:00,38.1,37.6,29.92,South,180,0.0,-999.0,98,-99.99,,,0.00,Acu-Link.com,2013-01-09 08:12:00,
2013-01-09 03:27:00,37.9,37.4,29.92,SSE,157,0.0,-999.0,98,-99.99,,,0.00,Acu-Link.com,2013-01-09 08:27:00,
2013-01-09 03:42:00,37.8,37.3,29.92,SSE,157,0.0,-999.0,98,-99.99,,,0.00,Acu-Link.com,2013-01-09 08:42:00,
2013-01-09 03:58:00,38.8,38.3,29.92,West,270,0.0,-999.0,98,-99.99,,,0.00,Acu-Link.com,2013-01-09 08:58:00,
2013-01-09 04:13:00,38.8,38.3,29.92,West,270,0.0,-999.0,98,-99.99,,,0.00,Acu-Link.com,2013-01-09 09:13:00,
2013-01-09 04:28:00,39.0,38.5,29.92,ESE,112,0.0,-999.0,98,-99.99,,,0.00,Acu-Link.com,2013-01-09 09:28:00,
2013-01-09 04:43:00,38.5,38.0,29.92,SE,135,0.0,-999.0,98,-99.99,,,0.00,Acu-Link.com,2013-01-09 09:43:00,
2013-01-09 04:58:00,37.9,37.4,29.92,South,180,0.0,-999.0,98,-99.99,,,0.00,Acu-Link.com,2013-01-09 09:58:00,
2013-01-09 05:14:00,37.8,37.3,29.92,South,180,0.0,-999.0,98,-99.99,,,0.00,Acu-Link.com,2013-01-09 10:14:00,
2013-01-09 05:29:00,37.2,36.7,29.92,South,180,0.0,-999.0,98,-99.99,,,0.00,Acu-Link.com,2013-01-09 10:29:00,
2013-01-09 05:44:00,37.0,36.5,29.92,South,180,0.0,-999.0,98,-99.99,,,0.00,Acu-Link.com,2013-01-09 10:44:00,
2013-01-09 06:00:00,37.0,36.5,29.92,SSW,202,0.0,-999.0,98,-99.99,,,0.00,Acu-Link.com,2013-01-09 11:00:00,
2013-01-09 06:15:00,37.2,36.7,29.92,SSW,202,0.0,-999.0,98,-99.99,,,0.00,Acu-Link.com,2013-01-09 11:15:00,
2013-01-09 06:30:00,37.2,36.7,29.92,SSW,202,0.0,-999.0,98,-99.99,,,0.00,Acu-Link.com,2013-01-09 11:30:00,
2013-01-09 06:45:00,37.0,36.5,29.92,SSW,202,0.0,-999.0,98,-99.99,,,0.00,Acu-Link.com,2013-01-09 11:45:00,
2013-01-09 07:01:00,36.7,36.2,29.92,ESE,112,0.0,-999.0,98,-99.99,,,0.00,Acu-Link.com,2013-01-09 12:01:00,
2013-01-09 07:16:00,36.5,36.0,29.92,ESE,112,0.0,-999.0,98,-99.99,,,0.00,Acu-Link.com,2013-01-09 12:16:00,
2013-01-09 07:31:00,36.3,35.8,29.92,WNW,292,0.0,-999.0,98,-99.99,,,0.00,Acu-Link.com,2013-01-09 12:31:00,
2013-01-09 07:47:00,36.1,35.6,29.92,South,180,0.0,-999.0,98,-99.99,,,0.00,Acu-Link.com,2013-01-09 12:47:00,
2013-01-09 08:02:00,37.0,36.5,29.92,ESE,112,0.0,-999.0,98,-99.99,,,0.00,Acu-Link.com,2013-01-09 13:02:00,
2013-01-09 08:17:00,37.9,37.4,29.92,ESE,112,0.0,-999.0,98,-99.99,,,0.00,Acu-Link.com,2013-01-09 13:17:00,
2013-01-09 08:33:00,38.7,38.2,29.92,SE,135,0.0,-999.0,98,-99.99,,,0.00,Acu-Link.com,2013-01-09 13:33:00,
2013-01-09 08:48:00,39.6,39.1,29.92,SE,135,0.0,-999.0,98,-99.99,,,0.00,Acu-Link.com,2013-01-09 13:48:00,
2013-01-09 09:03:00,40.8,40.3,29.92,South,180,0.0,-999.0,98,-99.99,,,0.00,Acu-Link.com,2013-01-09 14:03:00,
2013-01-09 09:18:00,42.3,41.8,29.92,West,270,0.0,-999.0,98,-99.99,,,0.00,Acu-Link.com,2013-01-09 14:18:00,
2013-01-09 09:34:00,45.9,45.4,29.92,SSE,157,0.0,-999.0,98,-99.99,,,0.00,Acu-Link.com,2013-01-09 14:34:00,
2013-01-09 09:49:00,51.1,48.0,29.92,South,180,0.0,-999.0,89,-99.99,,,0.00,Acu-Link.com,2013-01-09 14:49:00,
2013-01-09 10:04:00,52.2,47.8,29.92,NW,315,2.2,-999.0,85,-99.99,,,0.00,Acu-Link.com,2013-01-09 15:04:00,
2013-01-09 10:20:00,54.1,48.1,29.92,West,270,1.7,-999.0,80,-99.99,,,0.00,Acu-Link.com,2013-01-09 15:20:00,
2013-01-09 10:35:00,55.6,49.2,29.92,NE,45,1.1,-999.0,79,-99.99,,,0.00,Acu-Link.com,2013-01-09 15:35:00,
2013-01-09 10:50:00,57.4,50.9,29.92,North,0,1.1,-999.0,79,-99.99,,,0.00,Acu-Link.com,2013-01-09 15:50:00,
2013-01-09 11:05:00,58.5,52.0,29.92,ENE,67,1.7,-999.0,79,-99.99,,,0.00,Acu-Link.com,2013-01-09 16:05:00,
2013-01-09 11:21:00,59.9,52.3,29.92,West,270,2.7,-999.0,76,-99.99,,,0.00,Acu-Link.com,2013-01-09 16:21:00,
2013-01-09 11:36:00,60.8,53.2,29.92,WSW,247,3.7,-999.0,76,-99.99,,,0.00,Acu-Link.com,2013-01-09 16:36:00,
2013-01-09 11:51:00,61.2,53.2,29.92,North,0,1.7,-999.0,75,-99.99,,,0.00,Acu-Link.com,2013-01-09 16:51:00,
2013-01-09 12:06:00,61.2,53.6,29.92,West,270,4.7,-999.0,76,-99.99,,,0.00,Acu-Link.com,2013-01-09 17:06:00,
2013-01-09 12:22:00,62.6,54.2,29.92,NNE,22,1.7,-999.0,74,-99.99,,,0.00,Acu-Link.com,2013-01-09 17:22:00,
2013-01-09 12:37:00,63.9,55.4,29.92,WNW,292,3.2,-999.0,74,-99.99,,,0.00,Acu-Link.com,2013-01-09 17:37:00,
2013-01-09 12:52:00,64.8,56.3,29.92,NW,315,2.2,-999.0,74,-99.99,,,0.00,Acu-Link.com,2013-01-09 17:52:00,
2013-01-09 13:08:00,65.1,55.8,29.92,West,270,3.2,-999.0,72,-99.99,,,0.00,Acu-Link.com,2013-01-09 18:08:00,
2013-01-09 13:23:00,65.5,55.8,29.92,WSW,247,1.7,-999.0,71,-99.99,,,0.00,Acu-Link.com,2013-01-09 18:23:00,
2013-01-09 13:38:00,65.7,55.6,29.92,West,270,2.7,-999.0,70,-99.99,,,0.00,Acu-Link.com,2013-01-09 18:38:00,
2013-01-09 13:54:00,65.8,55.3,29.92,SSE,157,1.7,-999.0,69,-99.99,,,0.00,Acu-Link.com,2013-01-09 18:54:00,
2013-01-09 14:09:00,66.6,55.3,29.92,East,90,0.0,-999.0,67,-99.99,,,0.00,Acu-Link.com,2013-01-09 19:09:00,
2013-01-09 14:24:00,66.7,55.0,29.92,NW,315,1.7,-999.0,66,-99.99,,,0.00,Acu-Link.com,2013-01-09 19:24:00,
2013-01-09 14:39:00,66.2,54.9,29.92,West,270,2.2,-999.0,67,-99.99,,,0.00,Acu-Link.com,2013-01-09 19:39:00,
2013-01-09 14:55:00,66.6,54.9,29.92,SSW,202,1.1,-999.0,66,-99.99,,,0.00,Acu-Link.com,2013-01-09 19:55:00,
2013-01-09 15:10:00,66.6,54.5,29.92,West,270,2.7,-999.0,65,-99.99,,,0.00,Acu-Link.com,2013-01-09 20:10:00,
2013-01-09 15:25:00,66.4,54.3,29.92,West,270,1.7,-999.0,65,-99.99,,,0.00,Acu-Link.com,2013-01-09 20:25:00,
2013-01-09 15:41:00,65.7,54.4,29.92,West,270,2.7,-999.0,67,-99.99,,,0.00,Acu-Link.com,2013-01-09 20:41:00,
2013-01-09 15:56:00,64.9,54.1,29.92,WNW,292,0.0,-999.0,68,-99.99,,,0.00,Acu-Link.com,2013-01-09 20:56:00,
2013-01-09 16:11:00,64.2,54.6,29.92,East,90,1.1,-999.0,71,-99.99,,,0.00,Acu-Link.com,2013-01-09 21:11:00,
2013-01-09 16:27:00,63.9,54.7,29.92,NW,315,1.1,-999.0,72,-99.99,,,0.00,Acu-Link.com,2013-01-09 21:27:00,
2013-01-09 16:42:00,62.8,54.4,29.92,ESE,112,0.0,-999.0,74,-99.99,,,0.00,Acu-Link.com,2013-01-09 21:42:00,
2013-01-09 16:57:00,61.3,54.0,29.92,SSE,157,0.0,-999.0,77,-99.99,,,0.00,Acu-Link.com,2013-01-09 21:57:00,
2013-01-09 17:12:00,59.9,54.1,29.92,SE,135,0.0,-999.0,81,-99.99,,,0.00,Acu-Link.com,2013-01-09 22:12:00,
2013-01-09 17:28:00,59.0,53.8,29.92,SSE,157,0.0,-999.0,83,-99.99,,,0.00,Acu-Link.com,2013-01-09 22:28:00,
2013-01-09 17:43:00,57.7,53.9,29.92,SSE,157,0.0,-999.0,87,-99.99,,,0.00,Acu-Link.com,2013-01-09 22:43:00,
2013-01-09 17:58:00,57.6,54.1,29.92,East,90,0.0,-999.0,88,-99.99,,,0.00,Acu-Link.com,2013-01-09 22:58:00,
2013-01-09 18:14:00,57.4,54.2,29.92,South,180,0.0,-999.0,89,-99.99,,,0.00,Acu-Link.com,2013-01-09 23:14:00,
2013-01-09 18:29:00,57.6,54.1,29.92,SSE,157,0.0,-999.0,88,-99.99,,,0.00,Acu-Link.com,2013-01-09 23:29:00,
2013-01-09 18:44:00,57.4,54.2,29.92,SE,135,0.0,-999.0,89,-99.99,,,0.00,Acu-Link.com,2013-01-09 23:44:00,
2013-01-09 19:00:00,57.6,54.1,29.92,SSW,202,2.7,-999.0,88,-99.99,,,0.00,Acu-Link.com,2013-01-10 00:00:00,
2013-01-09 19:15:00,56.3,53.1,29.92,SSE,157,0.0,-999.0,89,-99.99,,,0.00,Acu-Link.com,2013-01-10 00:15:00,
2013-01-09 19:30:00,55.2,52.6,29.92,ESE,112,0.0,-999.0,91,-99.99,,,0.00,Acu-Link.com,2013-01-10 00:30:00,
2013-01-09 19:45:00,53.8,51.8,29.92,South,180,0.0,-999.0,93,-99.99,,,0.00,Acu-Link.com,2013-01-10 00:45:00,
2013-01-09 20:01:00,52.7,51.6,29.92,SSE,157,0.0,-999.0,96,-99.99,,,0.00,Acu-Link.com,2013-01-10 01:01:00,
2013-01-09 20:16:00,51.8,51.3,29.92,SE,135,0.0,-999.0,98,-99.99,,,0.00,Acu-Link.com,2013-01-10 01:16:00,
2013-01-09 20:31:00,50.9,50.4,29.92,ESE,112,0.0,-999.0,98,-99.99,,,0.00,Acu-Link.com,2013-01-10 01:31:00,
2013-01-09 20:47:00,50.2,49.7,29.92,SE,135,0.0,-999.0,98,-99.99,,,0.00,Acu-Link.com,2013-01-10 01:47:00,
2013-01-09 21:02:00,49.5,49.0,29.92,South,180,0.0,-999.0,98,-99.99,,,0.00,Acu-Link.com,2013-01-10 02:02:00,
2013-01-09 21:17:00,48.7,48.2,29.92,SSE,157,0.0,-999.0,98,-99.99,,,0.00,Acu-Link.com,2013-01-10 02:17:00,
2013-01-09 21:33:00,48.4,47.9,29.92,South,180,0.0,-999.0,98,-99.99,,,0.00,Acu-Link.com,2013-01-10 02:33:00,
2013-01-09 21:48:00,47.8,47.3,29.92,SSE,157,0.0,-999.0,98,-99.99,,,0.00,Acu-Link.com,2013-01-10 02:48:00,
2013-01-09 22:03:00,47.7,47.2,29.92,SE,135,0.0,-999.0,98,-99.99,,,0.00,Acu-Link.com,2013-01-10 03:03:00,
2013-01-09 22:18:00,47.5,47.0,29.92,East,90,0.0,-999.0,98,-99.99,,,0.00,Acu-Link.com,2013-01-10 03:18:00,
2013-01-09 22:34:00,47.3,46.8,29.92,SSE,157,0.0,-999.0,98,-99.99,,,0.00,Acu-Link.com,2013-01-10 03:34:00,
2013-01-09 22:49:00,47.3,46.8,29.92,SSE,157,0.0,-999.0,98,-99.99,,,0.00,Acu-Link.com,2013-01-10 03:49:00,
2013-01-09 23:05:00,47.5,47.0,29.92,SSE,157,0.0,-999.0,98,-99.99,,,0.00,Acu-Link.com,2013-01-10 04:05:00,
2013-01-09 23:20:00,47.8,47.3,29.92,SSE,157,0.0,-999.0,98,-99.99,,,0.00,Acu-Link.com,2013-01-10 04:20:00,
2013-01-09 23:35:00,48.2,47.7,29.92,SSE,157,0.0,-999.0,98,-99.99,,,0.00,Acu-Link.com,2013-01-10 04:35:00,
2013-01-09 23:51:00,48.6,48.1,29.92,ESE,112,0.0,-999.0,98,-99.99,,,0.00,Acu-Link.com,2013-01-10 04:51:00,